sensor_id;sensor_type;location;lat;lon;timestamp;pressure;altitude;pressure_sealevel;temperature
13570;BMP180;6856;51.460;7.158;2023-08-20T00:01:58;100977.00;;;26.00
13570;BMP180;6856;51.460;7.158;2023-08-20T00:04:36;100966.00;;;26.00
13570;BMP180;6856;51.460;7.158;2023-08-20T00:07:11;100967.00;;;26.00
13570;BMP180;6856;51.460;7.158;2023-08-20T00:09:44;100962.00;;;26.00
13570;BMP180;6856;51.460;7.158;2023-08-20T00:12:19;100972.00;;;26.00
13570;BMP180;6856;51.460;7.158;2023-08-20T00:14:57;100951.00;;;25.90
13570;BMP180;6856;51.460;7.158;2023-08-20T00:17:39;100956.00;;;25.90
13570;BMP180;6856;51.460;7.158;2023-08-20T00:20:14;100967.00;;;25.90
13570;BMP180;6856;51.460;7.158;2023-08-20T00:22:49;100965.00;;;25.90
13570;BMP180;6856;51.460;7.158;2023-08-20T00:25:24;100975.00;;;25.90
13570;BMP180;6856;51.460;7.158;2023-08-20T00:27:58;100971.00;;;25.90
13570;BMP180;6856;51.460;7.158;2023-08-20T00:30:38;100959.00;;;25.80
13570;BMP180;6856;51.460;7.158;2023-08-20T00:33:36;100961.00;;;25.80
13570;BMP180;6856;51.460;7.158;2023-08-20T00:36:16;100943.00;;;25.80
13570;BMP180;6856;51.460;7.158;2023-08-20T00:38:50;100959.00;;;25.80
13570;BMP180;6856;51.460;7.158;2023-08-20T00:41:25;100962.00;;;25.80
13570;BMP180;6856;51.460;7.158;2023-08-20T00:43:59;100964.00;;;25.70
13570;BMP180;6856;51.460;7.158;2023-08-20T00:46:34;100962.00;;;25.70
13570;BMP180;6856;51.460;7.158;2023-08-20T00:49:08;100969.00;;;25.70
13570;BMP180;6856;51.460;7.158;2023-08-20T00:51:42;100971.00;;;25.70
13570;BMP180;6856;51.460;7.158;2023-08-20T00:54:17;100964.00;;;25.70
13570;BMP180;6856;51.460;7.158;2023-08-20T00:56:56;100968.00;;;25.60
13570;BMP180;6856;51.460;7.158;2023-08-20T00:59:32;100953.00;;;25.60
13570;BMP180;6856;51.460;7.158;2023-08-20T01:02:09;100945.00;;;25.60
13570;BMP180;6856;51.460;7.158;2023-08-20T01:04:43;100946.00;;;25.60
13570;BMP180;6856;51.460;7.158;2023-08-20T01:07:30;100954.00;;;25.60
13570;BMP180;6856;51.460;7.158;2023-08-20T01:10:18;100961.00;;;25.50
13570;BMP180;6856;51.460;7.158;2023-08-20T01:12:54;100944.00;;;25.50
13570;BMP180;6856;51.460;7.158;2023-08-20T01:15:28;100940.00;;;25.50
13570;BMP180;6856;51.460;7.158;2023-08-20T01:18:04;100946.00;;;25.50
13570;BMP180;6856;51.460;7.158;2023-08-20T01:20:52;100939.00;;;25.50
13570;BMP180;6856;51.460;7.158;2023-08-20T01:27:08;100952.00;;;25.40
13570;BMP180;6856;51.460;7.158;2023-08-20T01:29:46;100948.00;;;25.40
13570;BMP180;6856;51.460;7.158;2023-08-20T01:32:21;100944.00;;;25.40
13570;BMP180;6856;51.460;7.158;2023-08-20T01:34:56;100934.00;;;25.30
13570;BMP180;6856;51.460;7.158;2023-08-20T01:37:30;100938.00;;;25.30
13570;BMP180;6856;51.460;7.158;2023-08-20T01:40:06;100949.00;;;25.30
13570;BMP180;6856;51.460;7.158;2023-08-20T01:42:40;100956.00;;;25.30
13570;BMP180;6856;51.460;7.158;2023-08-20T01:45:16;100959.00;;;25.30
13570;BMP180;6856;51.460;7.158;2023-08-20T01:47:50;100963.00;;;25.30
13570;BMP180;6856;51.460;7.158;2023-08-20T01:50:24;100961.00;;;25.20
13570;BMP180;6856;51.460;7.158;2023-08-20T01:53:00;100961.00;;;25.20
13570;BMP180;6856;51.460;7.158;2023-08-20T01:55:35;100962.00;;;25.20
13570;BMP180;6856;51.460;7.158;2023-08-20T01:58:08;100949.00;;;25.20
13570;BMP180;6856;51.460;7.158;2023-08-20T02:00:45;100937.00;;;25.20
13570;BMP180;6856;51.460;7.158;2023-08-20T02:03:21;100951.00;;;25.10
13570;BMP180;6856;51.460;7.158;2023-08-20T02:05:56;100956.00;;;25.10
13570;BMP180;6856;51.460;7.158;2023-08-20T02:08:30;100956.00;;;25.10
13570;BMP180;6856;51.460;7.158;2023-08-20T02:11:06;100950.00;;;25.10
13570;BMP180;6856;51.460;7.158;2023-08-20T02:13:39;100946.00;;;25.10
13570;BMP180;6856;51.460;7.158;2023-08-20T02:16:15;100953.00;;;25.00
13570;BMP180;6856;51.460;7.158;2023-08-20T02:18:49;100949.00;;;25.00
13570;BMP180;6856;51.460;7.158;2023-08-20T02:21:24;100949.00;;;25.00
13570;BMP180;6856;51.460;7.158;2023-08-20T02:23:59;100959.00;;;25.00
13570;BMP180;6856;51.460;7.158;2023-08-20T02:26:33;100955.00;;;25.00
13570;BMP180;6856;51.460;7.158;2023-08-20T02:29:10;100980.00;;;24.90
13570;BMP180;6856;51.460;7.158;2023-08-20T02:31:46;100975.00;;;24.90
13570;BMP180;6856;51.460;7.158;2023-08-20T02:34:20;100983.00;;;24.90
13570;BMP180;6856;51.460;7.158;2023-08-20T02:36:54;100985.00;;;24.90
13570;BMP180;6856;51.460;7.158;2023-08-20T02:39:30;100985.00;;;24.90
13570;BMP180;6856;51.460;7.158;2023-08-20T02:42:05;100988.00;;;24.90
13570;BMP180;6856;51.460;7.158;2023-08-20T02:44:39;100987.00;;;24.80
13570;BMP180;6856;51.460;7.158;2023-08-20T02:47:14;101009.00;;;24.80
13570;BMP180;6856;51.460;7.158;2023-08-20T02:49:49;101012.00;;;24.80
13570;BMP180;6856;51.460;7.158;2023-08-20T02:52:23;101005.00;;;24.80
13570;BMP180;6856;51.460;7.158;2023-08-20T02:54:57;101017.00;;;24.80
13570;BMP180;6856;51.460;7.158;2023-08-20T02:57:30;101009.00;;;24.80
13570;BMP180;6856;51.460;7.158;2023-08-20T03:00:07;101000.00;;;24.80
13570;BMP180;6856;51.460;7.158;2023-08-20T03:02:45;101001.00;;;24.80
13570;BMP180;6856;51.460;7.158;2023-08-20T03:05:19;100993.00;;;24.70
13570;BMP180;6856;51.460;7.158;2023-08-20T03:07:53;101000.00;;;24.70
13570;BMP180;6856;51.460;7.158;2023-08-20T03:10:31;101000.00;;;24.70
13570;BMP180;6856;51.460;7.158;2023-08-20T03:13:04;100996.00;;;24.70
13570;BMP180;6856;51.460;7.158;2023-08-20T03:15:38;100981.00;;;24.70
13570;BMP180;6856;51.460;7.158;2023-08-20T03:18:15;100994.00;;;24.70
13570;BMP180;6856;51.460;7.158;2023-08-20T03:20:49;100999.00;;;24.70
13570;BMP180;6856;51.460;7.158;2023-08-20T03:23:24;100998.00;;;24.70
13570;BMP180;6856;51.460;7.158;2023-08-20T03:25:58;101000.00;;;24.70
13570;BMP180;6856;51.460;7.158;2023-08-20T03:28:32;101003.00;;;24.70
13570;BMP180;6856;51.460;7.158;2023-08-20T03:31:06;100996.00;;;24.70
13570;BMP180;6856;51.460;7.158;2023-08-20T03:33:42;100998.00;;;24.60
13570;BMP180;6856;51.460;7.158;2023-08-20T03:36:15;100997.00;;;24.60
13570;BMP180;6856;51.460;7.158;2023-08-20T03:38:49;101007.00;;;24.60
13570;BMP180;6856;51.460;7.158;2023-08-20T03:41:23;101021.00;;;24.60
13570;BMP180;6856;51.460;7.158;2023-08-20T03:43:57;101016.00;;;24.60
13570;BMP180;6856;51.460;7.158;2023-08-20T03:46:31;101008.00;;;24.60
13570;BMP180;6856;51.460;7.158;2023-08-20T03:49:06;101006.00;;;24.60
13570;BMP180;6856;51.460;7.158;2023-08-20T03:51:40;101010.00;;;24.60
13570;BMP180;6856;51.460;7.158;2023-08-20T03:54:15;101005.00;;;24.60
13570;BMP180;6856;51.460;7.158;2023-08-20T03:56:50;101019.00;;;24.60
13570;BMP180;6856;51.460;7.158;2023-08-20T03:59:26;101008.00;;;24.50
13570;BMP180;6856;51.460;7.158;2023-08-20T04:02:02;101003.00;;;24.50
13570;BMP180;6856;51.460;7.158;2023-08-20T04:04:39;101003.00;;;24.50
13570;BMP180;6856;51.460;7.158;2023-08-20T04:07:13;101010.00;;;24.50
13570;BMP180;6856;51.460;7.158;2023-08-20T04:09:48;101014.00;;;24.50
13570;BMP180;6856;51.460;7.158;2023-08-20T04:12:23;101021.00;;;24.50
13570;BMP180;6856;51.460;7.158;2023-08-20T04:14:57;101012.00;;;24.50
13570;BMP180;6856;51.460;7.158;2023-08-20T04:17:31;101017.00;;;24.50
13570;BMP180;6856;51.460;7.158;2023-08-20T04:20:09;101011.00;;;24.50
13570;BMP180;6856;51.460;7.158;2023-08-20T04:22:44;101001.00;;;24.50
13570;BMP180;6856;51.460;7.158;2023-08-20T04:25:17;101021.00;;;24.40
13570;BMP180;6856;51.460;7.158;2023-08-20T04:27:51;101021.00;;;24.40
13570;BMP180;6856;51.460;7.158;2023-08-20T04:30:26;101015.00;;;24.40
13570;BMP180;6856;51.460;7.158;2023-08-20T04:32:59;101014.00;;;24.40
13570;BMP180;6856;51.460;7.158;2023-08-20T04:36:05;101013.00;;;24.40
13570;BMP180;6856;51.460;7.158;2023-08-20T04:38:39;101023.00;;;24.40
13570;BMP180;6856;51.460;7.158;2023-08-20T04:41:13;101031.00;;;24.40
13570;BMP180;6856;51.460;7.158;2023-08-20T04:43:47;101029.00;;;24.30
13570;BMP180;6856;51.460;7.158;2023-08-20T04:46:22;101029.00;;;24.30
13570;BMP180;6856;51.460;7.158;2023-08-20T04:48:55;101034.00;;;24.30
13570;BMP180;6856;51.460;7.158;2023-08-20T04:51:31;101050.00;;;24.30
13570;BMP180;6856;51.460;7.158;2023-08-20T04:54:05;101051.00;;;24.30
13570;BMP180;6856;51.460;7.158;2023-08-20T04:56:39;101043.00;;;24.30
13570;BMP180;6856;51.460;7.158;2023-08-20T04:59:14;101043.00;;;24.30
13570;BMP180;6856;51.460;7.158;2023-08-20T05:01:49;101042.00;;;24.30
13570;BMP180;6856;51.460;7.158;2023-08-20T05:04:24;101044.00;;;24.30
13570;BMP180;6856;51.460;7.158;2023-08-20T05:07:02;101042.00;;;24.30
13570;BMP180;6856;51.460;7.158;2023-08-20T05:09:36;101046.00;;;24.30
13570;BMP180;6856;51.460;7.158;2023-08-20T05:12:10;101029.00;;;24.30
13570;BMP180;6856;51.460;7.158;2023-08-20T05:14:44;101041.00;;;24.30
13570;BMP180;6856;51.460;7.158;2023-08-20T05:17:18;101044.00;;;24.30
13570;BMP180;6856;51.460;7.158;2023-08-20T05:19:52;101042.00;;;24.30
13570;BMP180;6856;51.460;7.158;2023-08-20T05:22:28;101043.00;;;24.30
13570;BMP180;6856;51.460;7.158;2023-08-20T05:25:03;101052.00;;;24.30
13570;BMP180;6856;51.460;7.158;2023-08-20T05:27:37;101047.00;;;24.30
13570;BMP180;6856;51.460;7.158;2023-08-20T05:30:12;101056.00;;;24.30
13570;BMP180;6856;51.460;7.158;2023-08-20T05:33:40;101048.00;;;24.30
13570;BMP180;6856;51.460;7.158;2023-08-20T05:36:14;101049.00;;;24.30
13570;BMP180;6856;51.460;7.158;2023-08-20T05:38:50;101055.00;;;24.30
13570;BMP180;6856;51.460;7.158;2023-08-20T05:42:14;101057.00;;;24.30
13570;BMP180;6856;51.460;7.158;2023-08-20T05:44:48;101058.00;;;24.30
13570;BMP180;6856;51.460;7.158;2023-08-20T05:47:22;101049.00;;;24.30
13570;BMP180;6856;51.460;7.158;2023-08-20T05:49:56;101055.00;;;24.30
13570;BMP180;6856;51.460;7.158;2023-08-20T05:52:56;101052.00;;;24.40
13570;BMP180;6856;51.460;7.158;2023-08-20T05:55:31;101053.00;;;24.40
13570;BMP180;6856;51.460;7.158;2023-08-20T05:58:05;101053.00;;;24.40
13570;BMP180;6856;51.460;7.158;2023-08-20T06:00:40;101054.00;;;24.40
13570;BMP180;6856;51.460;7.158;2023-08-20T06:03:15;101055.00;;;24.40
13570;BMP180;6856;51.460;7.158;2023-08-20T06:05:50;101060.00;;;24.50
13570;BMP180;6856;51.460;7.158;2023-08-20T06:08:24;101053.00;;;24.50
13570;BMP180;6856;51.460;7.158;2023-08-20T06:11:00;101047.00;;;24.50
13570;BMP180;6856;51.460;7.158;2023-08-20T06:13:34;101061.00;;;24.50
13570;BMP180;6856;51.460;7.158;2023-08-20T06:16:08;101061.00;;;24.60
13570;BMP180;6856;51.460;7.158;2023-08-20T06:18:41;101060.00;;;24.60
13570;BMP180;6856;51.460;7.158;2023-08-20T06:21:15;101021.00;;;24.60
13570;BMP180;6856;51.460;7.158;2023-08-20T06:23:50;101057.00;;;24.70
13570;BMP180;6856;51.460;7.158;2023-08-20T06:26:27;101060.00;;;24.70
13570;BMP180;6856;51.460;7.158;2023-08-20T06:29:03;101055.00;;;24.80
13570;BMP180;6856;51.460;7.158;2023-08-20T06:31:37;101058.00;;;24.70
13570;BMP180;6856;51.460;7.158;2023-08-20T06:34:14;101055.00;;;24.80
13570;BMP180;6856;51.460;7.158;2023-08-20T06:36:49;101050.00;;;24.90
13570;BMP180;6856;51.460;7.158;2023-08-20T06:39:23;101051.00;;;24.90
13570;BMP180;6856;51.460;7.158;2023-08-20T06:42:01;101054.00;;;25.00
13570;BMP180;6856;51.460;7.158;2023-08-20T06:44:35;101047.00;;;25.00
13570;BMP180;6856;51.460;7.158;2023-08-20T06:47:09;101059.00;;;25.10
13570;BMP180;6856;51.460;7.158;2023-08-20T06:49:42;101052.00;;;25.10
13570;BMP180;6856;51.460;7.158;2023-08-20T06:52:17;101064.00;;;25.20
13570;BMP180;6856;51.460;7.158;2023-08-20T06:54:52;101063.00;;;25.20
13570;BMP180;6856;51.460;7.158;2023-08-20T06:57:35;101061.00;;;25.30
13570;BMP180;6856;51.460;7.158;2023-08-20T07:00:09;101073.00;;;25.30
13570;BMP180;6856;51.460;7.158;2023-08-20T07:02:45;101076.00;;;25.40
13570;BMP180;6856;51.460;7.158;2023-08-20T07:05:20;101075.00;;;25.40
13570;BMP180;6856;51.460;7.158;2023-08-20T07:07:54;101077.00;;;25.50
13570;BMP180;6856;51.460;7.158;2023-08-20T07:10:28;101075.00;;;25.60
13570;BMP180;6856;51.460;7.158;2023-08-20T07:13:04;101076.00;;;25.60
13570;BMP180;6856;51.460;7.158;2023-08-20T07:15:39;101066.00;;;25.70
13570;BMP180;6856;51.460;7.158;2023-08-20T07:18:13;101075.00;;;25.80
13570;BMP180;6856;51.460;7.158;2023-08-20T07:20:47;101069.00;;;25.90
13570;BMP180;6856;51.460;7.158;2023-08-20T07:23:22;101073.00;;;25.90
13570;BMP180;6856;51.460;7.158;2023-08-20T07:26:05;101068.00;;;26.00
13570;BMP180;6856;51.460;7.158;2023-08-20T07:28:43;101068.00;;;26.10
13570;BMP180;6856;51.460;7.158;2023-08-20T07:31:33;101063.00;;;26.20
13570;BMP180;6856;51.460;7.158;2023-08-20T07:34:08;101057.00;;;26.20
13570;BMP180;6856;51.460;7.158;2023-08-20T07:37:17;101066.00;;;26.40
13570;BMP180;6856;51.460;7.158;2023-08-20T07:39:54;101067.00;;;26.40
13570;BMP180;6856;51.460;7.158;2023-08-20T07:42:30;101066.00;;;26.50
13570;BMP180;6856;51.460;7.158;2023-08-20T07:45:12;101067.00;;;26.60
13570;BMP180;6856;51.460;7.158;2023-08-20T07:47:47;101064.00;;;26.60
13570;BMP180;6856;51.460;7.158;2023-08-20T07:51:11;101073.00;;;26.70
13570;BMP180;6856;51.460;7.158;2023-08-20T07:53:45;101070.00;;;26.80
13570;BMP180;6856;51.460;7.158;2023-08-20T07:56:19;101073.00;;;26.80
13570;BMP180;6856;51.460;7.158;2023-08-20T07:58:53;101066.00;;;27.00
13570;BMP180;6856;51.460;7.158;2023-08-20T08:01:30;101073.00;;;27.00
13570;BMP180;6856;51.460;7.158;2023-08-20T08:04:11;101062.00;;;27.10
13570;BMP180;6856;51.460;7.158;2023-08-20T08:06:46;101079.00;;;27.30
13570;BMP180;6856;51.460;7.158;2023-08-20T08:09:28;101080.00;;;27.30
13570;BMP180;6856;51.460;7.158;2023-08-20T08:12:04;101081.00;;;27.50
13570;BMP180;6856;51.460;7.158;2023-08-20T08:14:39;101087.00;;;27.60
13570;BMP180;6856;51.460;7.158;2023-08-20T08:17:24;101059.00;;;27.60
13570;BMP180;6856;51.460;7.158;2023-08-20T08:20:01;101074.00;;;27.70
13570;BMP180;6856;51.460;7.158;2023-08-20T08:22:36;101080.00;;;27.80
13570;BMP180;6856;51.460;7.158;2023-08-20T08:25:11;101081.00;;;27.90
13570;BMP180;6856;51.460;7.158;2023-08-20T08:27:46;101076.00;;;28.00
13570;BMP180;6856;51.460;7.158;2023-08-20T08:30:32;101079.00;;;28.10
13570;BMP180;6856;51.460;7.158;2023-08-20T08:33:07;101079.00;;;28.10
13570;BMP180;6856;51.460;7.158;2023-08-20T08:35:41;101083.00;;;28.20
13570;BMP180;6856;51.460;7.158;2023-08-20T08:38:15;101081.00;;;28.20
13570;BMP180;6856;51.460;7.158;2023-08-20T08:40:50;101088.00;;;28.20
13570;BMP180;6856;51.460;7.158;2023-08-20T08:43:26;101094.00;;;28.30
13570;BMP180;6856;51.460;7.158;2023-08-20T08:46:29;101091.00;;;28.40
13570;BMP180;6856;51.460;7.158;2023-08-20T08:49:06;101089.00;;;28.40
13570;BMP180;6856;51.460;7.158;2023-08-20T08:51:44;101100.00;;;28.50
13570;BMP180;6856;51.460;7.158;2023-08-20T08:54:22;101093.00;;;28.50
13570;BMP180;6856;51.460;7.158;2023-08-20T08:56:56;101095.00;;;28.60
13570;BMP180;6856;51.460;7.158;2023-08-20T08:59:31;101104.00;;;28.60
13570;BMP180;6856;51.460;7.158;2023-08-20T09:02:10;101103.00;;;28.70
13570;BMP180;6856;51.460;7.158;2023-08-20T09:04:45;101095.00;;;28.70
13570;BMP180;6856;51.460;7.158;2023-08-20T09:07:19;101106.00;;;28.70
13570;BMP180;6856;51.460;7.158;2023-08-20T09:09:58;101099.00;;;28.70
13570;BMP180;6856;51.460;7.158;2023-08-20T09:12:34;101091.00;;;28.70
13570;BMP180;6856;51.460;7.158;2023-08-20T09:15:11;101091.00;;;28.70
13570;BMP180;6856;51.460;7.158;2023-08-20T09:17:46;101095.00;;;28.80
13570;BMP180;6856;51.460;7.158;2023-08-20T09:20:34;101094.00;;;28.80
13570;BMP180;6856;51.460;7.158;2023-08-20T09:23:11;101072.00;;;28.80
13570;BMP180;6856;51.460;7.158;2023-08-20T09:25:47;101093.00;;;28.80
13570;BMP180;6856;51.460;7.158;2023-08-20T09:28:22;101094.00;;;28.80
13570;BMP180;6856;51.460;7.158;2023-08-20T09:30:57;101099.00;;;28.90
13570;BMP180;6856;51.460;7.158;2023-08-20T09:33:59;101099.00;;;28.90
13570;BMP180;6856;51.460;7.158;2023-08-20T09:36:35;101035.00;;;29.00
13570;BMP180;6856;51.460;7.158;2023-08-20T09:39:09;101094.00;;;29.00
13570;BMP180;6856;51.460;7.158;2023-08-20T09:41:46;101101.00;;;29.10
13570;BMP180;6856;51.460;7.158;2023-08-20T09:44:22;101100.00;;;29.10
13570;BMP180;6856;51.460;7.158;2023-08-20T09:46:57;101095.00;;;29.10
13570;BMP180;6856;51.460;7.158;2023-08-20T09:49:41;101095.00;;;29.20
13570;BMP180;6856;51.460;7.158;2023-08-20T09:52:25;101099.00;;;29.30
13570;BMP180;6856;51.460;7.158;2023-08-20T09:55:08;101112.00;;;29.40
13570;BMP180;6856;51.460;7.158;2023-08-20T09:58:08;101120.00;;;29.50
13570;BMP180;6856;51.460;7.158;2023-08-20T10:00:43;101115.00;;;29.50
13570;BMP180;6856;51.460;7.158;2023-08-20T10:03:22;101121.00;;;29.50
13570;BMP180;6856;51.460;7.158;2023-08-20T10:05:58;101119.00;;;29.60
13570;BMP180;6856;51.460;7.158;2023-08-20T10:08:36;101121.00;;;29.60
13570;BMP180;6856;51.460;7.158;2023-08-20T10:11:10;101127.00;;;29.60
13570;BMP180;6856;51.460;7.158;2023-08-20T10:13:44;101116.00;;;29.60
13570;BMP180;6856;51.460;7.158;2023-08-20T10:16:19;101114.00;;;29.60
13570;BMP180;6856;51.460;7.158;2023-08-20T10:19:02;101116.00;;;29.60
13570;BMP180;6856;51.460;7.158;2023-08-20T10:21:36;101118.00;;;29.60
13570;BMP180;6856;51.460;7.158;2023-08-20T10:24:17;101120.00;;;29.60
13570;BMP180;6856;51.460;7.158;2023-08-20T10:27:08;101124.00;;;29.70
13570;BMP180;6856;51.460;7.158;2023-08-20T10:29:46;101113.00;;;29.70
13570;BMP180;6856;51.460;7.158;2023-08-20T10:32:46;101123.00;;;29.80
13570;BMP180;6856;51.460;7.158;2023-08-20T10:35:28;101118.00;;;29.90
13570;BMP180;6856;51.460;7.158;2023-08-20T10:38:05;101117.00;;;30.00
13570;BMP180;6856;51.460;7.158;2023-08-20T10:40:55;101119.00;;;30.20
13570;BMP180;6856;51.460;7.158;2023-08-20T10:43:34;101118.00;;;30.30
13570;BMP180;6856;51.460;7.158;2023-08-20T10:46:16;101124.00;;;30.30
13570;BMP180;6856;51.460;7.158;2023-08-20T10:48:53;101112.00;;;30.40
13570;BMP180;6856;51.460;7.158;2023-08-20T10:51:29;101118.00;;;30.50
13570;BMP180;6856;51.460;7.158;2023-08-20T10:54:05;101120.00;;;30.50
13570;BMP180;6856;51.460;7.158;2023-08-20T10:56:43;101121.00;;;30.60
13570;BMP180;6856;51.460;7.158;2023-08-20T10:59:23;101113.00;;;30.60
13570;BMP180;6856;51.460;7.158;2023-08-20T11:01:58;101125.00;;;30.60
13570;BMP180;6856;51.460;7.158;2023-08-20T11:04:32;101115.00;;;30.70
13570;BMP180;6856;51.460;7.158;2023-08-20T11:07:07;101119.00;;;30.70
13570;BMP180;6856;51.460;7.158;2023-08-20T11:09:42;101125.00;;;30.80
13570;BMP180;6856;51.460;7.158;2023-08-20T11:12:22;101127.00;;;30.80
13570;BMP180;6856;51.460;7.158;2023-08-20T11:15:00;101136.00;;;30.90
13570;BMP180;6856;51.460;7.158;2023-08-20T11:17:40;101121.00;;;31.10
13570;BMP180;6856;51.460;7.158;2023-08-20T11:20:20;101124.00;;;31.20
13570;BMP180;6856;51.460;7.158;2023-08-20T11:22:54;101124.00;;;31.20
13570;BMP180;6856;51.460;7.158;2023-08-20T11:25:28;101119.00;;;31.30
13570;BMP180;6856;51.460;7.158;2023-08-20T11:28:06;101125.00;;;31.30
13570;BMP180;6856;51.460;7.158;2023-08-20T11:30:39;101126.00;;;31.40
13570;BMP180;6856;51.460;7.158;2023-08-20T11:33:13;101130.00;;;31.40
13570;BMP180;6856;51.460;7.158;2023-08-20T11:35:47;101133.00;;;31.40
13570;BMP180;6856;51.460;7.158;2023-08-20T11:38:27;101126.00;;;31.40
13570;BMP180;6856;51.460;7.158;2023-08-20T11:41:51;101132.00;;;31.30
13570;BMP180;6856;51.460;7.158;2023-08-20T11:44:27;101127.00;;;31.20
13570;BMP180;6856;51.460;7.158;2023-08-20T11:47:01;101112.00;;;31.20
13570;BMP180;6856;51.460;7.158;2023-08-20T11:49:46;101117.00;;;31.20
13570;BMP180;6856;51.460;7.158;2023-08-20T11:52:20;101117.00;;;31.20
13570;BMP180;6856;51.460;7.158;2023-08-20T11:54:56;101124.00;;;31.20
13570;BMP180;6856;51.460;7.158;2023-08-20T11:57:33;101117.00;;;31.30
13570;BMP180;6856;51.460;7.158;2023-08-20T12:00:25;101112.00;;;31.30
13570;BMP180;6856;51.460;7.158;2023-08-20T12:03:02;101114.00;;;31.40
13570;BMP180;6856;51.460;7.158;2023-08-20T12:05:36;101085.00;;;31.40
13570;BMP180;6856;51.460;7.158;2023-08-20T12:08:16;101123.00;;;31.40
13570;BMP180;6856;51.460;7.158;2023-08-20T12:10:50;101121.00;;;31.40
13570;BMP180;6856;51.460;7.158;2023-08-20T12:13:24;101115.00;;;31.40
13570;BMP180;6856;51.460;7.158;2023-08-20T12:16:00;101118.00;;;31.40
13570;BMP180;6856;51.460;7.158;2023-08-20T12:18:34;101123.00;;;31.50
13570;BMP180;6856;51.460;7.158;2023-08-20T12:21:08;101117.00;;;31.50
13570;BMP180;6856;51.460;7.158;2023-08-20T12:23:43;101108.00;;;31.50
13570;BMP180;6856;51.460;7.158;2023-08-20T12:26:23;101111.00;;;31.60
13570;BMP180;6856;51.460;7.158;2023-08-20T12:28:57;101111.00;;;31.60
13570;BMP180;6856;51.460;7.158;2023-08-20T12:31:33;101102.00;;;31.70
13570;BMP180;6856;51.460;7.158;2023-08-20T12:34:07;101104.00;;;31.70
13570;BMP180;6856;51.460;7.158;2023-08-20T12:36:42;101105.00;;;31.90
13570;BMP180;6856;51.460;7.158;2023-08-20T12:39:16;101093.00;;;32.00
13570;BMP180;6856;51.460;7.158;2023-08-20T12:41:51;101088.00;;;32.00
13570;BMP180;6856;51.460;7.158;2023-08-20T12:44:27;101095.00;;;32.10
13570;BMP180;6856;51.460;7.158;2023-08-20T12:47:03;101092.00;;;32.20
13570;BMP180;6856;51.460;7.158;2023-08-20T12:49:39;101105.00;;;32.20
13570;BMP180;6856;51.460;7.158;2023-08-20T12:52:14;101089.00;;;32.30
13570;BMP180;6856;51.460;7.158;2023-08-20T12:54:48;101088.00;;;32.30
13570;BMP180;6856;51.460;7.158;2023-08-20T12:57:24;101095.00;;;32.40
13570;BMP180;6856;51.460;7.158;2023-08-20T12:59:58;101083.00;;;32.40
13570;BMP180;6856;51.460;7.158;2023-08-20T13:02:34;101085.00;;;32.40
13570;BMP180;6856;51.460;7.158;2023-08-20T13:05:13;101086.00;;;32.50
13570;BMP180;6856;51.460;7.158;2023-08-20T13:07:49;101084.00;;;32.50
13570;BMP180;6856;51.460;7.158;2023-08-20T13:10:24;101076.00;;;32.50
13570;BMP180;6856;51.460;7.158;2023-08-20T13:13:02;101092.00;;;32.50
13570;BMP180;6856;51.460;7.158;2023-08-20T13:15:37;101092.00;;;32.50
13570;BMP180;6856;51.460;7.158;2023-08-20T13:18:39;101085.00;;;32.50
13570;BMP180;6856;51.460;7.158;2023-08-20T13:21:14;101087.00;;;32.40
13570;BMP180;6856;51.460;7.158;2023-08-20T13:23:48;101086.00;;;32.40
13570;BMP180;6856;51.460;7.158;2023-08-20T13:26:22;101080.00;;;32.40
13570;BMP180;6856;51.460;7.158;2023-08-20T13:28:56;101078.00;;;32.40
13570;BMP180;6856;51.460;7.158;2023-08-20T13:31:30;101083.00;;;32.40
13570;BMP180;6856;51.460;7.158;2023-08-20T13:34:07;101085.00;;;32.40
13570;BMP180;6856;51.460;7.158;2023-08-20T13:36:41;101070.00;;;32.50
13570;BMP180;6856;51.460;7.158;2023-08-20T13:39:16;101074.00;;;32.50
13570;BMP180;6856;51.460;7.158;2023-08-20T13:41:51;101078.00;;;32.50
13570;BMP180;6856;51.460;7.158;2023-08-20T13:44:25;101074.00;;;32.50
13570;BMP180;6856;51.460;7.158;2023-08-20T13:47:01;101075.00;;;32.50
13570;BMP180;6856;51.460;7.158;2023-08-20T13:49:37;101076.00;;;32.50
13570;BMP180;6856;51.460;7.158;2023-08-20T13:53:07;101086.00;;;32.60
13570;BMP180;6856;51.460;7.158;2023-08-20T13:55:42;101074.00;;;32.60
13570;BMP180;6856;51.460;7.158;2023-08-20T13:58:17;101081.00;;;32.60
13570;BMP180;6856;51.460;7.158;2023-08-20T14:00:51;101084.00;;;32.60
13570;BMP180;6856;51.460;7.158;2023-08-20T14:03:25;101087.00;;;32.60
13570;BMP180;6856;51.460;7.158;2023-08-20T14:06:02;101084.00;;;32.60
13570;BMP180;6856;51.460;7.158;2023-08-20T14:08:37;101083.00;;;32.60
13570;BMP180;6856;51.460;7.158;2023-08-20T14:11:12;101088.00;;;32.60
13570;BMP180;6856;51.460;7.158;2023-08-20T14:13:48;101081.00;;;32.60
13570;BMP180;6856;51.460;7.158;2023-08-20T14:16:23;101071.00;;;32.60
13570;BMP180;6856;51.460;7.158;2023-08-20T14:18:58;101081.00;;;32.50
13570;BMP180;6856;51.460;7.158;2023-08-20T14:21:34;101082.00;;;32.50
13570;BMP180;6856;51.460;7.158;2023-08-20T14:24:08;101075.00;;;32.50
13570;BMP180;6856;51.460;7.158;2023-08-20T14:26:42;101084.00;;;32.50
13570;BMP180;6856;51.460;7.158;2023-08-20T14:29:18;101086.00;;;32.40
13570;BMP180;6856;51.460;7.158;2023-08-20T14:31:52;101087.00;;;32.40
13570;BMP180;6856;51.460;7.158;2023-08-20T14:34:26;101090.00;;;32.40
13570;BMP180;6856;51.460;7.158;2023-08-20T14:37:01;101090.00;;;32.40
13570;BMP180;6856;51.460;7.158;2023-08-20T14:39:41;101090.00;;;32.40
13570;BMP180;6856;51.460;7.158;2023-08-20T14:42:16;101090.00;;;32.30
13570;BMP180;6856;51.460;7.158;2023-08-20T14:44:50;101082.00;;;32.30
13570;BMP180;6856;51.460;7.158;2023-08-20T14:47:26;101087.00;;;32.30
13570;BMP180;6856;51.460;7.158;2023-08-20T14:50:00;101086.00;;;32.20
13570;BMP180;6856;51.460;7.158;2023-08-20T14:52:36;101072.00;;;32.20
13570;BMP180;6856;51.460;7.158;2023-08-20T14:55:11;101079.00;;;32.20
13570;BMP180;6856;51.460;7.158;2023-08-20T14:57:45;101074.00;;;32.20
13570;BMP180;6856;51.460;7.158;2023-08-20T15:00:23;101072.00;;;32.20
13570;BMP180;6856;51.460;7.158;2023-08-20T15:02:57;101077.00;;;32.20
13570;BMP180;6856;51.460;7.158;2023-08-20T15:05:34;101062.00;;;32.20
13570;BMP180;6856;51.460;7.158;2023-08-20T15:08:10;101073.00;;;32.20
13570;BMP180;6856;51.460;7.158;2023-08-20T15:10:56;101067.00;;;32.20